Time;durP1;ratioP1;P1;durP2;ratioP2;P2;SDS_P1;SDS_P2;PMS_P1;PMS_P2;Temp;Humidity;BMP_temperature;BMP_pressure;BME280_temperature;BME280_humidity;BME280_pressure;Samples;Min_cycle;Max_cycle;Signal;HPM_P1;HPM_P2
2023/03/23 00:01:53;;;;;;;;;;;11.30;99.90;;;;;;5130184;27;19916;-64
2023/03/23 00:04:20;;;;;;;;;;;11.30;99.90;;;;;;5131949;27;19934;-63
2023/03/23 00:06:46;;;;;;;;;;;11.30;99.90;;;;;;5130220;27;20381;-64
2023/03/23 00:09:12;;;;;;;;;;;11.30;99.90;;;;;;5130782;27;19911;-63
2023/03/23 00:11:39;;;;;;;;;;;11.30;99.90;;;;;;5128914;27;19918;-65
2023/03/23 00:14:04;;;;;;;;;;;11.30;99.90;;;;;;5131575;27;19912;-64
2023/03/23 00:16:31;;;;;;;;;;;11.30;99.90;;;;;;5131893;27;19916;-62
2023/03/23 00:19:03;;;;;;;;;;;11.30;99.90;;;;;;5133683;27;20340;-66
2023/03/23 00:21:33;;;;;;;;;;;11.30;99.90;;;;;;5130779;27;20010;-65
2023/03/23 00:24:08;;;;;;;;;;;11.40;99.90;;;;;;5129875;27;19912;-63
2023/03/23 00:26:34;;;;;;;;;;;11.40;99.90;;;;;;5129386;27;20323;-63
2023/03/23 00:29:03;;;;;;;;;;;11.30;99.90;;;;;;5134327;27;19918;-63
2023/03/23 00:31:35;;;;;;;;;;;11.30;99.90;;;;;;5142013;27;20316;-63
2023/03/23 00:34:01;;;;;;;;;;;11.30;99.90;;;;;;5121658;27;19956;-64
2023/03/23 00:36:27;;;;;;;;;;;11.30;99.90;;;;;;5131201;27;19943;-64
2023/03/23 00:38:52;;;;;;;;;;;11.30;99.90;;;;;;5127820;27;20371;-63
2023/03/23 00:41:18;;;;;;;;;;;11.30;99.90;;;;;;5127866;27;20002;-64
2023/03/23 00:43:43;;;;;;;;;;;11.30;99.90;;;;;;5111860;27;19920;-64
2023/03/23 00:46:09;;;;;;;;;;;11.40;99.90;;;;;;5137530;27;19912;-64
2023/03/23 00:48:44;;;;;;;;;;;11.40;99.90;;;;;;5130458;27;20260;-64
2023/03/23 00:51:10;;;;;;;;;;;11.40;99.90;;;;;;5131107;27;19912;-64
2023/03/23 00:53:36;;;;;;;;;;;11.40;99.90;;;;;;5131049;27;19911;-63
2023/03/23 00:56:02;;;;;;;;;;;11.40;99.90;;;;;;5129193;27;19927;-63
2023/03/23 00:58:27;;;;;;;;;;;11.30;99.90;;;;;;5130148;27;19918;-63
2023/03/23 01:00:53;;;;;;;;;;;11.40;99.90;;;;;;5128400;27;19912;-63
2023/03/23 01:03:19;;;;;;;;;;;11.40;99.90;;;;;;5130830;27;20256;-64
2023/03/23 01:05:46;;;;;;;;;;;11.40;99.90;;;;;;5126961;27;19911;-63
2023/03/23 01:08:12;;;;;;;;;;;11.40;99.90;;;;;;5130884;27;19918;-64
2023/03/23 01:10:38;;;;;;;;;;;11.30;99.90;;;;;;5124281;27;19919;-64
2023/03/23 01:13:05;;;;;;;;;;;11.30;99.90;;;;;;5130444;27;20324;-64
2023/03/23 01:15:31;;;;;;;;;;;11.30;99.90;;;;;;5130646;27;20010;-64
2023/03/23 01:17:56;;;;;;;;;;;11.40;99.90;;;;;;5128865;27;20357;-64
2023/03/23 01:20:23;;;;;;;;;;;11.30;99.90;;;;;;5130520;27;19999;-63
2023/03/23 01:22:49;;;;;;;;;;;11.30;99.90;;;;;;5129087;28;20359;-64
2023/03/23 01:25:15;;;;;;;;;;;11.20;99.90;;;;;;5130917;28;19911;-63
2023/03/23 01:27:41;;;;;;;;;;;11.20;99.90;;;;;;5127962;28;19911;-64
2023/03/23 01:30:07;;;;;;;;;;;11.30;99.90;;;;;;5129479;28;19911;-63
2023/03/23 01:32:33;;;;;;;;;;;11.30;99.90;;;;;;5129953;27;19919;-63
2023/03/23 01:35:14;;;;;;;;;;;11.20;99.90;;;;;;5133219;27;19919;-64
2023/03/23 01:37:40;;;;;;;;;;;11.20;99.90;;;;;;5138319;27;19911;-63
2023/03/23 01:40:06;;;;;;;;;;;11.10;99.90;;;;;;5116263;27;20382;-63
2023/03/23 01:42:33;;;;;;;;;;;11.10;99.90;;;;;;5133168;27;19972;-64
2023/03/23 01:45:19;;;;;;;;;;;11.10;99.90;;;;;;5132889;27;20298;-63
2023/03/23 01:48:11;;;;;;;;;;;11.10;99.90;;;;;;5111596;27;20048;-63
2023/03/23 01:50:40;;;;;;;;;;;11.10;99.90;;;;;;5140185;27;20424;-63
2023/03/23 01:53:08;;;;;;;;;;;11.10;99.90;;;;;;5132963;27;20409;-63
2023/03/23 01:55:36;;;;;;;;;;;10.90;99.90;;;;;;5134076;27;19930;-64
2023/03/23 01:58:02;;;;;;;;;;;10.90;99.90;;;;;;5135847;27;20285;-64
2023/03/23 02:00:28;;;;;;;;;;;10.90;99.90;;;;;;5134422;27;19911;-64
2023/03/23 02:02:54;;;;;;;;;;;11.00;99.90;;;;;;5131742;27;20018;-63
2023/03/23 02:05:25;;;;;;;;;;;11.00;99.90;;;;;;5140802;27;19941;-64
2023/03/23 02:07:52;;;;;;;;;;;11.00;99.90;;;;;;5132774;27;19919;-65
2023/03/23 02:10:17;;;;;;;;;;;11.00;99.90;;;;;;5134192;27;19922;-64
2023/03/23 02:12:43;;;;;;;;;;;11.00;99.90;;;;;;5129269;27;19911;-65
2023/03/23 02:15:09;;;;;;;;;;;11.00;99.90;;;;;;5132631;27;19962;-64
2023/03/23 02:17:51;;;;;;;;;;;11.10;99.90;;;;;;5132652;27;20531;-64
2023/03/23 02:20:28;;;;;;;;;;;11.00;99.90;;;;;;5136746;27;19911;-65
2023/03/23 02:22:56;;;;;;;;;;;11.00;99.90;;;;;;5124305;27;20446;-64
2023/03/23 02:25:37;;;;;;;;;;;11.00;99.90;;;;;;5133309;27;19911;-65
2023/03/23 02:28:21;;;;;;;;;;;11.00;99.90;;;;;;5132664;27;19934;-65
2023/03/23 02:30:53;;;;;;;;;;;11.00;99.90;;;;;;5132274;27;19915;-65
2023/03/23 02:33:24;;;;;;;;;;;11.00;99.90;;;;;;5123318;27;19957;-65
2023/03/23 02:35:53;;;;;;;;;;;10.90;99.90;;;;;;5132086;27;20404;-64
2023/03/23 02:38:22;;;;;;;;;;;10.80;99.90;;;;;;5133706;27;19911;-64
2023/03/23 02:40:48;;;;;;;;;;;10.80;99.90;;;;;;5133810;27;19915;-65
2023/03/23 02:43:16;;;;;;;;;;;10.70;99.90;;;;;;5131566;27;19926;-63
2023/03/23 02:45:43;;;;;;;;;;;10.70;99.90;;;;;;5138815;27;19911;-62
2023/03/23 02:48:10;;;;;;;;;;;10.80;99.90;;;;;;5118604;27;19911;-63
2023/03/23 02:50:36;;;;;;;;;;;10.80;99.90;;;;;;5132947;27;19926;-64
2023/03/23 02:53:03;;;;;;;;;;;10.80;99.90;;;;;;5131708;27;20376;-64
2023/03/23 02:55:29;;;;;;;;;;;10.80;99.90;;;;;;5133462;27;19923;-64
2023/03/23 02:57:55;;;;;;;;;;;10.70;99.90;;;;;;5131242;27;20324;-64
2023/03/23 03:00:21;;;;;;;;;;;10.60;99.90;;;;;;5132233;27;19963;-64
2023/03/23 03:02:52;;;;;;;;;;;10.60;99.90;;;;;;5122759;27;19998;-64
2023/03/23 03:05:22;;;;;;;;;;;10.60;99.90;;;;;;5143684;27;19955;-64
2023/03/23 03:08:03;;;;;;;;;;;10.60;99.90;;;;;;5129365;27;19920;-64
2023/03/23 03:10:29;;;;;;;;;;;10.60;99.90;;;;;;5130198;27;20259;-63
2023/03/23 03:13:10;;;;;;;;;;;10.60;99.90;;;;;;5130663;27;19918;-64
2023/03/23 03:15:37;;;;;;;;;;;10.50;99.90;;;;;;5132501;27;19995;-64
2023/03/23 03:18:22;;;;;;;;;;;10.50;99.90;;;;;;5131233;27;20366;-64
2023/03/23 03:20:50;;;;;;;;;;;10.50;99.90;;;;;;5134518;27;20023;-63
2023/03/23 03:23:16;;;;;;;;;;;10.50;99.90;;;;;;5131102;27;19919;-64
2023/03/23 03:25:47;;;;;;;;;;;10.40;99.90;;;;;;5131239;27;20354;-64
2023/03/23 03:28:21;;;;;;;;;;;10.40;99.90;;;;;;5117010;27;19911;-63
2023/03/23 03:31:06;;;;;;;;;;;10.40;99.90;;;;;;5130178;27;19911;-64
2023/03/23 03:33:33;;;;;;;;;;;10.50;99.90;;;;;;5132119;27;20018;-63
2023/03/23 03:35:59;;;;;;;;;;;10.50;99.90;;;;;;5130198;27;20309;-63
2023/03/23 03:38:25;;;;;;;;;;;10.60;99.90;;;;;;5131107;27;20420;-65
2023/03/23 03:41:10;;;;;;;;;;;10.60;99.90;;;;;;5129169;27;19912;-65
2023/03/23 03:43:54;;;;;;;;;;;10.80;99.90;;;;;;4904344;27;19924;-64
2023/03/23 03:46:20;;;;;;;;;;;10.80;99.90;;;;;;5132121;27;19911;-64
2023/03/23 03:48:45;;;;;;;;;;;10.60;99.90;;;;;;5128971;27;19911;-63
2023/03/23 03:51:11;;;;;;;;;;;10.50;99.90;;;;;;5114222;27;19911;-64
2023/03/23 03:53:37;;;;;;;;;;;10.40;99.90;;;;;;5132332;27;20390;-64
2023/03/23 03:56:04;;;;;;;;;;;10.30;99.90;;;;;;5129437;27;19991;-63
2023/03/23 03:58:31;;;;;;;;;;;10.30;99.90;;;;;;5126834;27;19958;-63
2023/03/23 04:00:58;;;;;;;;;;;10.30;99.90;;;;;;5130417;27;20392;-63
2023/03/23 04:03:25;;;;;;;;;;;10.20;99.90;;;;;;5132040;27;19990;-63
2023/03/23 04:05:51;;;;;;;;;;;10.10;99.90;;;;;;5128331;27;20335;-63
2023/03/23 04:08:17;;;;;;;;;;;10.00;99.90;;;;;;5111266;27;20350;-63
2023/03/23 04:10:43;;;;;;;;;;;10.00;99.90;;;;;;5129933;27;19918;-63
2023/03/23 04:13:08;;;;;;;;;;;10.00;99.90;;;;;;5112993;27;19912;-62
2023/03/23 04:15:34;;;;;;;;;;;9.90;99.90;;;;;;5134415;27;19919;-63
2023/03/23 04:17:59;;;;;;;;;;;9.90;99.90;;;;;;5129614;27;20346;-62
2023/03/23 04:20:26;;;;;;;;;;;9.90;99.90;;;;;;5143971;27;19919;-63
2023/03/23 04:22:54;;;;;;;;;;;9.90;99.90;;;;;;5128814;27;19911;-63
2023/03/23 04:25:20;;;;;;;;;;;9.90;99.90;;;;;;5144574;27;19979;-63
2023/03/23 04:27:52;;;;;;;;;;;9.90;99.90;;;;;;5126284;27;20375;-61
2023/03/23 04:30:19;;;;;;;;;;;9.80;99.90;;;;;;5130633;27;19920;-63
2023/03/23 04:32:45;;;;;;;;;;;9.80;99.90;;;;;;5126198;27;19942;-62
2023/03/23 04:35:13;;;;;;;;;;;9.80;99.90;;;;;;5113024;27;19977;-63
2023/03/23 04:37:40;;;;;;;;;;;9.80;99.90;;;;;;5128742;27;19915;-63
2023/03/23 04:40:11;;;;;;;;;;;9.90;99.90;;;;;;5111610;27;19933;-63
2023/03/23 04:42:37;;;;;;;;;;;9.80;99.90;;;;;;5134734;27;20334;-63
2023/03/23 04:45:05;;;;;;;;;;;9.80;99.90;;;;;;5112022;27;20271;-63
2023/03/23 04:47:32;;;;;;;;;;;9.90;99.90;;;;;;5112051;27;19911;-63
2023/03/23 04:49:57;;;;;;;;;;;9.80;99.90;;;;;;5129501;27;19961;-63
2023/03/23 04:52:28;;;;;;;;;;;9.70;99.90;;;;;;5131145;27;19947;-64
2023/03/23 04:54:56;;;;;;;;;;;9.70;99.90;;;;;;5128843;27;19955;-63
2023/03/23 04:57:22;;;;;;;;;;;9.70;99.90;;;;;;5110390;27;19912;-64
2023/03/23 04:59:48;;;;;;;;;;;9.70;99.90;;;;;;5128676;27;19916;-64
2023/03/23 05:02:14;;;;;;;;;;;9.80;99.90;;;;;;5130373;27;19911;-64
2023/03/23 05:04:40;;;;;;;;;;;9.80;99.90;;;;;;5129071;27;19963;-64
2023/03/23 05:07:07;;;;;;;;;;;9.80;99.90;;;;;;5129466;27;19915;-64
2023/03/23 05:09:33;;;;;;;;;;;10.00;99.90;;;;;;5130283;27;20074;-64
2023/03/23 05:12:04;;;;;;;;;;;10.00;99.90;;;;;;5128882;27;20399;-64
2023/03/23 05:14:29;;;;;;;;;;;10.10;99.90;;;;;;5129255;27;20017;-63
2023/03/23 05:16:56;;;;;;;;;;;10.20;99.90;;;;;;5117091;27;19977;-64
2023/03/23 05:19:21;;;;;;;;;;;10.20;99.90;;;;;;5130959;27;19943;-63
2023/03/23 05:21:47;;;;;;;;;;;10.20;99.90;;;;;;5129095;27;19941;-63
2023/03/23 05:24:12;;;;;;;;;;;10.10;99.90;;;;;;5130073;28;19911;-63
2023/03/23 05:26:38;;;;;;;;;;;10.10;99.90;;;;;;5121230;28;20351;-63
2023/03/23 05:29:03;;;;;;;;;;;10.00;99.90;;;;;;5127326;28;19994;-65
2023/03/23 05:31:30;;;;;;;;;;;10.10;99.90;;;;;;5118851;28;19958;-63
2023/03/23 05:33:56;;;;;;;;;;;10.10;99.90;;;;;;5124387;28;19957;-63
2023/03/23 05:36:22;;;;;;;;;;;10.00;99.90;;;;;;5120493;28;19920;-64
2023/03/23 05:38:49;;;;;;;;;;;10.00;99.90;;;;;;5118068;28;19915;-63
2023/03/23 05:41:15;;;;;;;;;;;10.10;99.90;;;;;;5120950;28;20007;-65
2023/03/23 05:43:41;;;;;;;;;;;10.20;99.90;;;;;;5123774;28;19951;-62
2023/03/23 05:46:07;;;;;;;;;;;10.20;99.90;;;;;;5124394;27;20386;-63
2023/03/23 05:48:33;;;;;;;;;;;10.20;99.90;;;;;;5127246;28;19915;-65
2023/03/23 05:50:59;;;;;;;;;;;10.20;99.90;;;;;;5125343;28;19927;-63
2023/03/23 05:53:25;;;;;;;;;;;10.20;99.90;;;;;;5105856;28;20385;-64
2023/03/23 05:55:51;;;;;;;;;;;10.20;99.90;;;;;;5119521;28;19919;-65
2023/03/23 05:58:16;;;;;;;;;;;10.30;99.90;;;;;;5115151;28;19919;-64
2023/03/23 06:00:42;;;;;;;;;;;10.20;99.90;;;;;;5116767;28;19912;-65
2023/03/23 06:03:08;;;;;;;;;;;10.30;99.90;;;;;;5122428;27;19967;-64
2023/03/23 06:05:34;;;;;;;;;;;10.40;99.90;;;;;;5124741;28;19912;-63
2023/03/23 06:07:59;;;;;;;;;;;10.50;99.90;;;;;;5126988;28;19919;-66
2023/03/23 06:10:26;;;;;;;;;;;10.50;99.90;;;;;;5117647;27;19919;-63
2023/03/23 06:12:52;;;;;;;;;;;10.50;99.90;;;;;;5121635;27;19962;-63
2023/03/23 06:15:18;;;;;;;;;;;10.60;99.90;;;;;;5135016;27;19959;-63
2023/03/23 06:17:43;;;;;;;;;;;10.70;99.90;;;;;;5127815;28;20873;-63
2023/03/23 06:20:09;;;;;;;;;;;10.80;99.90;;;;;;5123767;27;19919;-64
2023/03/23 06:22:39;;;;;;;;;;;10.90;99.90;;;;;;5130896;27;19919;-63
2023/03/23 06:25:06;;;;;;;;;;;11.00;99.90;;;;;;5127013;27;20328;-63
2023/03/23 06:27:31;;;;;;;;;;;11.00;99.90;;;;;;5132948;27;19944;-63
2023/03/23 06:29:57;;;;;;;;;;;11.00;99.90;;;;;;5102275;27;19916;-63
2023/03/23 06:32:24;;;;;;;;;;;11.00;99.90;;;;;;5126425;27;20327;-64
2023/03/23 06:34:50;;;;;;;;;;;11.00;99.90;;;;;;5129992;27;19926;-64
2023/03/23 06:37:15;;;;;;;;;;;11.10;99.90;;;;;;5130109;27;19911;-65
2023/03/23 06:39:48;;;;;;;;;;;11.10;99.90;;;;;;5123859;27;19912;-64
2023/03/23 06:42:13;;;;;;;;;;;11.10;99.90;;;;;;5124402;27;20347;-63
2023/03/23 06:44:39;;;;;;;;;;;11.20;99.90;;;;;;5117014;27;19919;-64
2023/03/23 06:47:05;;;;;;;;;;;11.20;99.90;;;;;;5132284;27;19911;-63
2023/03/23 06:49:31;;;;;;;;;;;11.20;99.90;;;;;;5127444;27;20330;-64
2023/03/23 06:51:57;;;;;;;;;;;11.20;99.90;;;;;;5120793;27;19912;-64
2023/03/23 06:54:23;;;;;;;;;;;11.20;99.90;;;;;;5129677;27;20286;-64
2023/03/23 06:56:48;;;;;;;;;;;11.20;99.90;;;;;;5127999;27;19915;-64
2023/03/23 06:59:14;;;;;;;;;;;11.20;99.90;;;;;;5129621;27;19919;-63
2023/03/23 07:01:39;;;;;;;;;;;11.20;99.90;;;;;;5113614;27;20007;-63
2023/03/23 07:04:05;;;;;;;;;;;11.20;99.90;;;;;;5131924;27;19912;-63
2023/03/23 07:06:31;;;;;;;;;;;11.30;99.90;;;;;;5124386;27;19916;-64
2023/03/23 07:08:57;;;;;;;;;;;11.30;99.90;;;;;;5125080;27;20141;-64
2023/03/23 07:11:22;;;;;;;;;;;11.30;99.90;;;;;;5125963;27;19994;-65
2023/03/23 07:13:49;;;;;;;;;;;11.30;99.90;;;;;;5119697;27;19933;-64
2023/03/23 07:16:16;;;;;;;;;;;11.20;99.90;;;;;;5103260;28;19919;-63
2023/03/23 07:18:41;;;;;;;;;;;11.20;99.90;;;;;;5126701;27;20026;-64
2023/03/23 07:21:07;;;;;;;;;;;11.30;99.90;;;;;;5129319;27;20011;-64
2023/03/23 07:23:33;;;;;;;;;;;11.30;99.90;;;;;;5123498;27;19915;-65
2023/03/23 07:25:58;;;;;;;;;;;11.30;99.90;;;;;;5123707;27;20407;-63
2023/03/23 07:28:24;;;;;;;;;;;11.40;99.90;;;;;;5122797;27;20460;-64
2023/03/23 07:30:50;;;;;;;;;;;11.40;99.90;;;;;;5125620;27;19915;-64
2023/03/23 07:33:16;;;;;;;;;;;11.40;99.90;;;;;;5131076;27;19915;-64
2023/03/23 07:35:41;;;;;;;;;;;11.50;99.90;;;;;;5118720;27;19927;-64
2023/03/23 07:38:07;;;;;;;;;;;11.50;99.90;;;;;;5116585;27;19912;-64
2023/03/23 07:40:33;;;;;;;;;;;11.50;99.90;;;;;;5119582;27;19912;-64
2023/03/23 07:42:59;;;;;;;;;;;11.60;99.90;;;;;;5120800;27;20337;-65
2023/03/23 07:45:26;;;;;;;;;;;11.60;99.90;;;;;;5118874;27;19925;-65
2023/03/23 07:47:52;;;;;;;;;;;11.50;99.90;;;;;;5124560;27;20021;-64
2023/03/23 07:50:21;;;;;;;;;;;11.60;99.90;;;;;;5120226;27;19919;-63
2023/03/23 07:52:48;;;;;;;;;;;11.50;99.90;;;;;;5123982;27;19998;-64
2023/03/23 07:55:17;;;;;;;;;;;11.50;99.90;;;;;;5126376;27;19919;-64
2023/03/23 07:57:43;;;;;;;;;;;11.50;99.90;;;;;;5119074;27;19911;-65
2023/03/23 08:00:11;;;;;;;;;;;11.50;99.90;;;;;;5118842;27;20408;-64
2023/03/23 08:02:37;;;;;;;;;;;11.60;99.90;;;;;;5119674;27;19919;-64
2023/03/23 08:05:03;;;;;;;;;;;11.50;99.90;;;;;;5121533;27;19911;-64
2023/03/23 08:07:28;;;;;;;;;;;11.60;99.90;;;;;;5122508;27;19938;-64
2023/03/23 08:09:54;;;;;;;;;;;11.70;99.90;;;;;;5122013;27;19919;-65
2023/03/23 08:12:20;;;;;;;;;;;11.60;99.90;;;;;;5123151;27;19912;-65
2023/03/23 08:14:47;;;;;;;;;;;11.60;99.90;;;;;;5121895;27;19931;-65
2023/03/23 08:17:14;;;;;;;;;;;11.60;99.90;;;;;;5122786;27;19915;-65
2023/03/23 08:19:39;;;;;;;;;;;11.60;99.90;;;;;;5118601;27;19931;-63
2023/03/23 08:22:05;;;;;;;;;;;11.60;99.90;;;;;;5124496;27;19911;-63
2023/03/23 08:24:32;;;;;;;;;;;11.60;99.90;;;;;;5117711;27;19953;-65
2023/03/23 08:26:58;;;;;;;;;;;11.50;99.90;;;;;;5118162;27;19962;-66
2023/03/23 08:29:24;;;;;;;;;;;11.40;99.90;;;;;;5124997;27;19922;-65
2023/03/23 08:31:50;;;;;;;;;;;11.40;99.90;;;;;;5120747;27;19966;-64
2023/03/23 08:34:16;;;;;;;;;;;11.40;99.90;;;;;;5107176;27;19943;-64
2023/03/23 08:36:43;;;;;;;;;;;11.40;99.90;;;;;;5117526;27;20377;-64
2023/03/23 08:39:09;;;;;;;;;;;11.40;99.90;;;;;;5123244;27;19912;-64
2023/03/23 08:41:35;;;;;;;;;;;11.50;99.90;;;;;;5115421;27;20367;-65
2023/03/23 08:44:01;;;;;;;;;;;11.60;99.90;;;;;;5125674;27;19920;-63
2023/03/23 08:46:27;;;;;;;;;;;11.70;99.90;;;;;;5124826;27;20421;-64
2023/03/23 08:48:54;;;;;;;;;;;11.90;99.90;;;;;;5117312;27;20043;-64
2023/03/23 08:51:19;;;;;;;;;;;12.00;99.90;;;;;;5123966;27;20300;-64
2023/03/23 08:53:45;;;;;;;;;;;12.10;99.90;;;;;;5116943;27;19919;-65
2023/03/23 08:56:12;;;;;;;;;;;12.20;99.90;;;;;;5120587;27;20294;-64
2023/03/23 08:58:38;;;;;;;;;;;12.30;99.90;;;;;;5115048;27;20407;-65
2023/03/23 09:01:06;;;;;;;;;;;12.40;99.90;;;;;;5122513;27;20010;-64
2023/03/23 09:03:32;;;;;;;;;;;12.20;99.90;;;;;;5123171;27;19912;-65
2023/03/23 09:05:59;;;;;;;;;;;12.00;99.90;;;;;;5123902;27;19979;-63
2023/03/23 09:08:26;;;;;;;;;;;11.90;99.90;;;;;;5125479;27;20362;-64
2023/03/23 09:10:51;;;;;;;;;;;11.90;99.90;;;;;;5122571;27;19988;-65
2023/03/23 09:13:17;;;;;;;;;;;11.80;99.90;;;;;;5103798;28;19912;-64
2023/03/23 09:15:43;;;;;;;;;;;11.90;99.90;;;;;;5120207;27;20018;-65
2023/03/23 09:18:09;;;;;;;;;;;12.10;99.90;;;;;;5123161;27;19919;-65
2023/03/23 09:20:37;;;;;;;;;;;12.30;99.90;;;;;;5124230;27;19973;-66
2023/03/23 09:23:03;;;;;;;;;;;12.60;99.90;;;;;;5123804;27;19915;-65
2023/03/23 09:25:28;;;;;;;;;;;12.90;99.90;;;;;;5122452;28;19920;-65
2023/03/23 09:27:56;;;;;;;;;;;13.00;99.90;;;;;;5126196;28;19998;-63
2023/03/23 09:30:26;;;;;;;;;;;13.10;99.90;;;;;;5125813;28;19919;-65
2023/03/23 09:32:52;;;;;;;;;;;12.80;99.90;;;;;;5125903;28;19947;-65
2023/03/23 09:35:21;;;;;;;;;;;12.60;99.90;;;;;;5127117;28;19953;-65
2023/03/23 09:37:48;;;;;;;;;;;12.50;99.90;;;;;;5124144;28;19911;-65
2023/03/23 09:40:20;;;;;;;;;;;12.40;99.90;;;;;;5118721;28;19915;-65
2023/03/23 09:42:52;;;;;;;;;;;12.40;99.90;;;;;;5118309;28;19915;-65
2023/03/23 09:45:29;;;;;;;;;;;12.30;99.90;;;;;;5127103;28;19923;-66
2023/03/23 09:48:13;;;;;;;;;;;12.30;99.90;;;;;;5123469;28;20307;-65
2023/03/23 09:50:42;;;;;;;;;;;12.40;99.90;;;;;;5121030;28;19919;-65
2023/03/23 09:53:07;;;;;;;;;;;12.40;99.90;;;;;;5122467;28;20403;-65
2023/03/23 09:55:34;;;;;;;;;;;12.30;99.90;;;;;;5105720;27;20011;-65
2023/03/23 09:58:00;;;;;;;;;;;12.40;99.90;;;;;;5119964;27;19920;-65
2023/03/23 10:00:30;;;;;;;;;;;12.40;99.90;;;;;;5122991;27;20336;-65
2023/03/23 10:03:12;;;;;;;;;;;12.50;99.90;;;;;;5128449;27;20035;-64
2023/03/23 10:05:41;;;;;;;;;;;12.70;99.90;;;;;;5131593;27;19911;-64
2023/03/23 10:08:14;;;;;;;;;;;12.70;99.90;;;;;;5129395;27;19915;-66
2023/03/23 10:10:47;;;;;;;;;;;12.50;99.90;;;;;;5123145;27;20002;-67
2023/03/23 10:13:17;;;;;;;;;;;12.30;99.90;;;;;;5129515;27;19941;-66
2023/03/23 10:15:43;;;;;;;;;;;12.20;99.90;;;;;;5126426;27;19920;-65
2023/03/23 10:18:15;;;;;;;;;;;12.20;99.90;;;;;;5128193;27;20378;-65
2023/03/23 10:20:40;;;;;;;;;;;12.30;99.90;;;;;;5123523;27;20268;-66
2023/03/23 10:23:09;;;;;;;;;;;12.50;99.90;;;;;;5125423;27;20421;-65
2023/03/23 10:25:36;;;;;;;;;;;12.80;99.90;;;;;;5126493;27;19911;-65
2023/03/23 10:28:03;;;;;;;;;;;13.00;99.90;;;;;;5123126;27;19912;-66
2023/03/23 10:30:42;;;;;;;;;;;13.30;99.90;;;;;;5127740;27;19999;-65
2023/03/23 10:33:14;;;;;;;;;;;13.40;99.90;;;;;;5126572;27;20332;-66
2023/03/23 10:35:43;;;;;;;;;;;13.40;99.90;;;;;;5117113;27;19924;-66
2023/03/23 10:38:15;;;;;;;;;;;13.30;99.90;;;;;;5104363;27;20354;-66
2023/03/23 10:40:47;;;;;;;;;;;13.30;99.90;;;;;;5122480;27;19950;-67
2023/03/23 10:43:13;;;;;;;;;;;13.40;99.90;;;;;;5123822;27;19983;-66
2023/03/23 10:45:40;;;;;;;;;;;13.20;99.90;;;;;;5108282;27;20391;-66
2023/03/23 10:48:25;;;;;;;;;;;13.00;99.90;;;;;;5124253;27;19918;-66
2023/03/23 10:50:53;;;;;;;;;;;13.20;99.90;;;;;;5122937;27;19912;-65
2023/03/23 10:53:21;;;;;;;;;;;13.30;99.90;;;;;;5124769;27;19934;-66
2023/03/23 10:55:48;;;;;;;;;;;13.40;99.90;;;;;;5121377;27;19924;-65
2023/03/23 10:58:25;;;;;;;;;;;13.60;99.90;;;;;;5126219;27;19915;-66
2023/03/23 11:00:51;;;;;;;;;;;13.60;99.90;;;;;;5117040;27;19912;-65
2023/03/23 11:03:17;;;;;;;;;;;13.40;99.90;;;;;;5121382;27;20360;-66
2023/03/23 11:05:43;;;;;;;;;;;13.40;99.90;;;;;;5123555;27;19962;-66
2023/03/23 11:08:13;;;;;;;;;;;13.40;99.90;;;;;;5122140;27;20359;-66
2023/03/23 11:10:40;;;;;;;;;;;13.60;99.90;;;;;;5131051;27;19958;-66
2023/03/23 11:13:12;;;;;;;;;;;13.90;99.90;;;;;;5122127;27;19912;-66
2023/03/23 11:15:39;;;;;;;;;;;14.10;99.90;;;;;;5124151;27;20343;-66
2023/03/23 11:18:09;;;;;;;;;;;14.20;99.90;;;;;;5116249;27;19915;-66
2023/03/23 11:20:41;;;;;;;;;;;14.20;99.90;;;;;;5115817;27;20331;-67
2023/03/23 11:23:11;;;;;;;;;;;14.20;99.90;;;;;;5119172;27;19918;-66
2023/03/23 11:25:57;;;;;;;;;;;14.20;99.90;;;;;;5125513;27;19930;-66
2023/03/23 11:28:27;;;;;;;;;;;14.60;99.90;;;;;;5117383;27;19915;-66
2023/03/23 11:30:53;;;;;;;;;;;14.70;99.90;;;;;;5125096;27;19912;-66
2023/03/23 11:33:19;;;;;;;;;;;14.70;99.90;;;;;;5120788;27;19972;-67
2023/03/23 11:35:45;;;;;;;;;;;14.80;99.90;;;;;;5129768;27;19957;-66
2023/03/23 11:38:18;;;;;;;;;;;14.90;99.90;;;;;;5122042;27;19912;-66
2023/03/23 11:40:48;;;;;;;;;;;14.90;99.90;;;;;;5119929;27;19911;-65
2023/03/23 11:43:15;;;;;;;;;;;14.90;99.90;;;;;;5127236;27;20002;-67
2023/03/23 11:45:47;;;;;;;;;;;14.60;99.90;;;;;;5121525;27;19913;-66
2023/03/23 11:48:22;;;;;;;;;;;14.20;99.90;;;;;;5124086;27;19919;-66
2023/03/23 11:50:50;;;;;;;;;;;13.90;99.90;;;;;;5125972;27;19915;-66
2023/03/23 11:53:22;;;;;;;;;;;13.90;99.90;;;;;;5122428;27;19923;-66
2023/03/23 11:56:06;;;;;;;;;;;14.10;99.90;;;;;;5117642;27;20335;-64
2023/03/23 11:58:32;;;;;;;;;;;14.30;99.90;;;;;;5127419;27;20064;-66
2023/03/23 12:01:16;;;;;;;;;;;14.30;99.90;;;;;;5125646;27;20470;-66
2023/03/23 12:03:46;;;;;;;;;;;14.20;99.90;;;;;;5117660;27;19912;-65
2023/03/23 12:06:31;;;;;;;;;;;14.30;99.90;;;;;;5125995;27;19964;-65
2023/03/23 12:08:59;;;;;;;;;;;14.10;99.90;;;;;;5111280;27;19912;-66
2023/03/23 12:11:35;;;;;;;;;;;14.50;99.90;;;;;;5122462;27;19922;-65
2023/03/23 12:14:17;;;;;;;;;;;15.00;99.90;;;;;;5114150;27;20027;-64
2023/03/23 12:16:45;;;;;;;;;;;15.50;99.90;;;;;;5114710;27;20302;-64
2023/03/23 12:19:23;;;;;;;;;;;15.50;99.90;;;;;;5117645;27;19943;-63
2023/03/23 12:21:55;;;;;;;;;;;16.20;99.90;;;;;;5121927;27;19922;-63
2023/03/23 12:24:21;;;;;;;;;;;16.50;99.90;;;;;;5121490;27;19911;-63
2023/03/23 12:27:13;;;;;;;;;;;16.50;99.90;;;;;;5113108;27;20137;-64
2023/03/23 12:29:39;;;;;;;;;;;16.80;99.90;;;;;;5115317;27;19920;-63
2023/03/23 12:32:23;;;;;;;;;;;16.60;99.90;;;;;;5123033;27;19911;-63
2023/03/23 12:34:52;;;;;;;;;;;16.40;99.90;;;;;;5118414;27;20378;-62
2023/03/23 12:37:36;;;;;;;;;;;15.80;99.90;;;;;;5120996;27;19915;-63
2023/03/23 12:40:31;;;;;;;;;;;15.20;99.90;;;;;;5119794;27;20260;-63
2023/03/23 12:42:58;;;;;;;;;;;14.60;99.90;;;;;;5097725;27;19912;-62
2023/03/23 12:45:24;;;;;;;;;;;14.10;99.90;;;;;;5121290;27;19930;-62
2023/03/23 12:47:57;;;;;;;;;;;13.80;99.90;;;;;;5117272;27;19911;-64
2023/03/23 12:50:25;;;;;;;;;;;13.70;99.90;;;;;;5114302;27;19911;-63
2023/03/23 12:59:24;;;;;;;;;;;12.90;99.90;;;;;;5108896;27;19946;-64
2023/03/23 13:05:05;;;;;;;;;;;13.70;99.90;;;;;;5110648;27;19933;-64
2023/03/23 13:07:37;;;;;;;;;;;14.50;99.90;;;;;;5116015;27;19912;-63
2023/03/23 13:10:15;;;;;;;;;;;14.80;99.90;;;;;;5123168;27;20308;-63
2023/03/23 13:12:41;;;;;;;;;;;15.70;99.90;;;;;;5113185;27;20045;-63
2023/03/23 13:15:22;;;;;;;;;;;15.70;99.90;;;;;;5122763;27;19926;-63
2023/03/23 13:17:52;;;;;;;;;;;15.80;99.90;;;;;;5122542;27;19915;-63
2023/03/23 13:20:37;;;;;;;;;;;16.00;99.90;;;;;;5128574;27;19921;-64
2023/03/23 13:23:06;;;;;;;;;;;16.00;99.90;;;;;;5114467;27;19927;-64
2023/03/23 13:25:35;;;;;;;;;;;16.30;99.90;;;;;;5120722;27;19921;-64
2023/03/23 13:28:01;;;;;;;;;;;16.60;99.90;;;;;;5114851;27;19912;-64
2023/03/23 13:30:28;;;;;;;;;;;17.00;99.90;;;;;;5112478;27;19918;-63
2023/03/23 13:33:02;;;;;;;;;;;17.30;99.90;;;;;;5123784;27;20023;-64
2023/03/23 13:35:33;;;;;;;;;;;17.70;99.90;;;;;;5127059;27;19928;-64
2023/03/23 13:37:58;;;;;;;;;;;17.40;99.90;;;;;;5118754;27;19922;-64
2023/03/23 13:40:27;;;;;;;;;;;17.50;99.90;;;;;;5121939;27;20261;-63
2023/03/23 13:42:57;;;;;;;;;;;17.50;99.90;;;;;;5122524;27;20014;-63
2023/03/23 13:45:33;;;;;;;;;;;16.80;99.90;;;;;;5128627;27;19998;-64
2023/03/23 13:48:03;;;;;;;;;;;16.80;99.90;;;;;;5123230;27;20016;-63
2023/03/23 13:50:30;;;;;;;;;;;17.00;99.90;;;;;;5122598;27;19960;-64
2023/03/23 13:53:12;;;;;;;;;;;17.20;99.90;;;;;;5121340;27;19948;-63
2023/03/23 13:55:42;;;;;;;;;;;17.60;99.90;;;;;;5127979;27;19933;-63
2023/03/23 13:58:08;;;;;;;;;;;17.10;99.90;;;;;;5123886;27;19911;-63
2023/03/23 14:00:45;;;;;;;;;;;16.80;99.90;;;;;;5122226;27;20414;-63
2023/03/23 14:03:17;;;;;;;;;;;16.30;99.90;;;;;;5116210;27;19922;-64
2023/03/23 14:05:44;;;;;;;;;;;16.10;99.90;;;;;;5121307;27;19911;-64
2023/03/23 14:08:09;;;;;;;;;;;15.90;99.90;;;;;;5123063;27;19915;-63
2023/03/23 14:10:37;;;;;;;;;;;15.50;99.90;;;;;;5121191;27;20500;-64
2023/03/23 14:13:04;;;;;;;;;;;15.20;99.90;;;;;;5120206;27;19911;-66
2023/03/23 14:15:31;;;;;;;;;;;14.90;99.90;;;;;;5129871;27;19925;-64
2023/03/23 14:17:57;;;;;;;;;;;14.80;99.90;;;;;;5120939;27;19988;-62
2023/03/23 14:20:42;;;;;;;;;;;14.60;99.90;;;;;;5129459;27;20006;-64
2023/03/23 14:23:14;;;;;;;;;;;14.70;99.90;;;;;;5120161;27;19957;-62
2023/03/23 14:25:40;;;;;;;;;;;14.40;99.90;;;;;;5130705;27;19926;-62
2023/03/23 14:28:16;;;;;;;;;;;14.40;99.90;;;;;;5119674;27;20081;-63
2023/03/23 14:30:41;;;;;;;;;;;14.30;99.90;;;;;;5122077;27;19916;-63
2023/03/23 14:33:10;;;;;;;;;;;14.10;99.90;;;;;;5125103;27;19922;-65
2023/03/23 14:35:38;;;;;;;;;;;13.90;99.90;;;;;;5127915;27;19924;-63
2023/03/23 14:38:04;;;;;;;;;;;13.70;99.90;;;;;;5124989;27;20003;-65